createdAt,value
2018-06-12T00:00:44.236Z,22.50
2018-06-12T00:03:12.498Z,22.40
2018-06-12T00:05:41.403Z,22.50
2018-06-12T00:08:09.762Z,22.50
2018-06-12T00:10:38.253Z,22.50
2018-06-12T00:13:06.516Z,22.70
2018-06-12T00:15:34.789Z,22.60
2018-06-12T00:18:03.527Z,22.50
2018-06-12T00:20:31.955Z,22.40
2018-06-12T00:23:00.348Z,22.30
2018-06-12T00:25:28.846Z,22.20
2018-06-12T00:27:57.104Z,22.30
2018-06-12T00:30:25.449Z,22.30
2018-06-12T00:32:54.534Z,22.30
2018-06-12T00:35:22.807Z,22.30
2018-06-12T00:37:51.201Z,22.30
2018-06-12T00:40:19.454Z,22.30
2018-06-12T00:42:47.749Z,22.40
2018-06-12T00:45:16.304Z,22.40
2018-06-12T00:47:45.773Z,22.50
2018-06-12T00:50:14.107Z,22.40
2018-06-12T00:52:42.365Z,22.70
2018-06-12T00:55:10.638Z,22.80
2018-06-12T00:57:39.086Z,22.90
2018-06-12T01:00:07.760Z,22.90
2018-06-12T01:02:35.994Z,22.80
2018-06-12T01:05:04.263Z,22.70
2018-06-12T01:07:34.269Z,22.60
2018-06-12T01:10:03.527Z,22.60
2018-06-12T01:12:32.243Z,22.80
2018-06-12T01:15:00.698Z,22.70
2018-06-12T01:17:29.013Z,22.60
2018-06-12T01:19:57.279Z,22.70
2018-06-12T01:22:25.734Z,22.70
2018-06-12T01:24:54.722Z,22.70
2018-06-12T01:27:23.529Z,22.60
2018-06-12T01:29:51.786Z,22.60
2018-06-12T01:32:20.029Z,22.40
2018-06-12T01:34:48.361Z,22.30
2018-06-12T01:37:16.801Z,22.10
2018-06-12T01:39:46.066Z,22.10
2018-06-12T01:42:14.397Z,22.00
2018-06-12T01:44:42.698Z,21.90
2018-06-12T01:47:10.970Z,21.90
2018-06-12T01:49:40.264Z,21.90
2018-06-12T01:52:08.574Z,21.90
2018-06-12T01:54:36.850Z,21.90
2018-06-12T01:57:05.255Z,21.80
2018-06-12T01:59:33.530Z,21.90
2018-06-12T02:02:02.462Z,21.90
2018-06-12T02:04:31.346Z,21.90
2018-06-12T02:06:59.596Z,21.70
2018-06-12T02:11:55.901Z,21.60
2018-06-12T02:16:52.917Z,21.40
2018-06-12T02:19:21.150Z,21.30
2018-06-12T02:24:17.672Z,21.50
2018-06-12T02:26:46.562Z,21.50
2018-06-12T02:29:14.885Z,21.60
2018-06-12T02:31:43.170Z,21.70
2018-06-12T02:34:11.459Z,21.90
2018-06-12T02:36:40.331Z,22.00
2018-06-12T02:39:08.687Z,22.10
2018-06-12T02:41:36.950Z,22.10
2018-06-12T02:44:05.241Z,22.10
2018-06-12T02:49:01.646Z,22.20
2018-06-12T02:51:30.011Z,22.20
2018-06-12T02:53:58.242Z,22.40
2018-06-12T02:56:26.592Z,22.50
2018-06-12T02:58:55.274Z,22.60
2018-06-12T03:01:23.886Z,22.50
2018-06-12T03:03:52.171Z,22.60
2018-06-12T03:06:20.410Z,22.60
2018-06-12T03:08:48.601Z,22.50
2018-06-12T03:11:16.958Z,22.60
2018-06-12T03:13:45.798Z,22.30
2018-06-12T03:16:14.052Z,22.20
2018-06-12T03:18:42.300Z,22.00
2018-06-12T03:21:10.561Z,21.90
2018-06-12T03:23:39.379Z,21.90
2018-06-12T03:26:08.826Z,21.40
2018-06-12T03:28:37.064Z,21.30
2018-06-12T03:31:05.341Z,21.00
2018-06-12T03:33:33.612Z,20.90
2018-06-12T03:36:02.422Z,20.60
2018-06-12T03:38:31.149Z,20.30
2018-06-12T03:40:59.390Z,20.10
2018-06-12T03:43:27.619Z,19.90
2018-06-12T03:45:55.883Z,19.90
2018-06-12T03:48:24.139Z,19.80
2018-06-12T03:50:53.118Z,20.00
2018-06-12T03:53:21.405Z,20.00
2018-06-12T03:58:18.303Z,19.90
2018-06-12T04:00:46.750Z,20.00
2018-06-12T04:03:16.250Z,19.60
2018-06-12T04:05:44.966Z,19.70
2018-06-12T04:08:13.193Z,19.70
2018-06-12T04:10:41.456Z,19.60
2018-06-12T04:13:10.034Z,19.50
2018-06-12T04:15:40.321Z,19.60
2018-06-12T04:18:09.349Z,19.60
2018-06-12T04:20:38.231Z,19.70
2018-06-12T04:23:06.529Z,19.50
2018-06-12T04:25:35.794Z,19.70
2018-06-12T04:28:04.317Z,19.90
2018-06-12T04:30:32.587Z,20.10
2018-06-12T04:33:01.043Z,20.20
2018-06-12T04:37:57.369Z,20.40
2018-06-12T04:40:25.646Z,20.50
2018-06-12T04:42:54.194Z,20.60
2018-06-12T04:45:22.502Z,20.70
2018-06-12T04:47:50.806Z,20.80
2018-06-12T04:50:19.102Z,20.60
2018-06-12T04:52:47.485Z,20.90
2018-06-12T04:55:16.026Z,21.30
2018-06-12T04:57:44.313Z,21.70
2018-06-12T05:00:12.654Z,21.80
2018-06-12T05:02:40.930Z,22.00
2018-06-12T05:05:09.409Z,22.00
2018-06-12T05:07:38.678Z,22.10
2018-06-12T05:10:06.986Z,22.20
2018-06-12T05:12:35.346Z,22.20
2018-06-12T05:15:03.623Z,22.10
2018-06-12T05:17:32.074Z,22.00
2018-06-12T05:20:00.375Z,22.10
2018-06-12T05:22:28.629Z,22.00
2018-06-12T05:24:56.946Z,22.00
2018-06-12T05:27:25.354Z,21.90
2018-06-12T05:29:54.154Z,21.80
2018-06-12T05:32:23.997Z,22.00
2018-06-12T05:34:52.193Z,22.00
2018-06-12T05:37:20.610Z,22.00
2018-06-12T05:39:48.845Z,22.00
2018-06-12T05:42:18.110Z,22.30
2018-06-12T05:44:46.523Z,22.60
2018-06-12T05:47:14.816Z,22.60
2018-06-12T05:49:43.025Z,22.80
2018-06-12T05:52:11.262Z,22.90
2018-06-12T05:54:40.294Z,23.10
2018-06-12T05:57:08.773Z,23.40
2018-06-12T05:59:37.022Z,23.50
2018-06-12T06:02:05.268Z,23.70
2018-06-12T06:04:33.527Z,23.90
2018-06-12T06:07:02.257Z,23.90
2018-06-12T06:09:30.966Z,24.10
2018-06-12T06:11:59.269Z,24.20
2018-06-12T06:14:27.518Z,24.30
2018-06-12T06:16:55.769Z,24.40
2018-06-12T06:19:24.206Z,24.50
2018-06-12T06:21:52.599Z,24.70
2018-06-12T06:24:20.858Z,25.10
2018-06-12T06:26:49.104Z,25.20
2018-06-12T06:29:18.553Z,25.20
2018-06-12T06:31:46.915Z,25.10
2018-06-12T06:34:16.007Z,25.00
2018-06-12T06:36:44.246Z,24.90
2018-06-12T06:39:12.518Z,24.90
2018-06-12T06:41:40.767Z,24.70
2018-06-12T06:44:09.062Z,24.70
2018-06-12T06:46:38.346Z,24.30
2018-06-12T06:49:07.298Z,24.40
2018-06-12T06:51:35.635Z,24.70
2018-06-12T06:54:03.931Z,25.00
2018-06-12T06:56:33.249Z,25.40
2018-06-12T06:59:01.637Z,25.60
2018-06-12T07:01:29.967Z,25.80
2018-06-12T07:03:58.177Z,26.00
2018-06-12T07:06:26.409Z,26.00
2018-06-12T07:08:54.830Z,25.80
2018-06-12T07:11:23.079Z,26.00
2018-06-12T07:13:51.345Z,26.20
2018-06-12T07:16:19.610Z,26.20
2018-06-12T07:18:48.145Z,26.30
2018-06-12T07:21:19.951Z,26.40
2018-06-12T07:23:48.273Z,26.50
2018-06-12T07:26:17.561Z,26.70
2018-06-12T07:28:46.115Z,26.70
2018-06-12T07:31:14.391Z,26.90
2018-06-12T07:33:42.669Z,26.90
2018-06-12T07:36:10.946Z,26.90
2018-06-12T07:38:39.362Z,27.10
2018-06-12T07:41:07.653Z,27.00
2018-06-12T07:43:35.977Z,27.20
2018-06-12T07:46:04.394Z,27.00
2018-06-12T07:48:33.030Z,27.10
2018-06-12T07:51:01.305Z,27.40
2018-06-12T07:53:29.546Z,27.50
2018-06-12T07:55:57.806Z,27.70
2018-06-12T07:58:26.092Z,27.60
2018-06-12T08:00:55.424Z,27.50
2018-06-12T08:03:24.959Z,27.30
2018-06-12T08:05:55.076Z,27.20
2018-06-12T08:08:23.733Z,27.20
2018-06-12T08:10:52.011Z,27.20
2018-06-12T08:13:20.249Z,27.40
2018-06-12T08:15:48.546Z,27.40
2018-06-12T08:18:16.923Z,27.40
2018-06-12T08:20:46.016Z,27.50
2018-06-12T08:23:14.339Z,27.60
2018-06-12T08:25:42.642Z,27.60
2018-06-12T08:28:11.096Z,27.80
2018-06-12T08:30:39.566Z,27.80
2018-06-12T08:33:08.092Z,27.80
2018-06-12T08:35:36.468Z,27.80
2018-06-12T08:38:04.710Z,27.80
2018-06-12T08:40:32.976Z,27.60
2018-06-12T08:43:01.272Z,27.60
2018-06-12T08:47:57.603Z,27.70
2018-06-12T08:50:25.915Z,27.90
2018-06-12T08:52:54.289Z,28.20
2018-06-12T08:55:22.537Z,28.40
2018-06-12T08:57:51.129Z,28.50
2018-06-12T09:00:19.428Z,28.60
2018-06-12T09:02:47.776Z,28.70
2018-06-12T09:05:16.185Z,28.90
2018-06-12T09:07:44.466Z,28.90
2018-06-12T09:10:12.732Z,29.30
2018-06-12T09:12:41.010Z,30.30
2018-06-12T09:15:10.334Z,31.30
2018-06-12T09:17:38.754Z,32.40
2018-06-12T09:20:07.009Z,33.80
2018-06-12T09:22:35.286Z,34.80
2018-06-12T09:25:03.572Z,35.40
2018-06-12T09:27:38.273Z,35.80
2018-06-12T09:30:06.522Z,36.00
2018-06-12T09:32:34.766Z,35.80
2018-06-12T09:35:03.553Z,36.20
2018-06-12T09:37:32.440Z,36.70
2018-06-12T09:40:01.275Z,37.30
2018-06-12T09:42:29.532Z,37.80
2018-06-12T09:44:57.815Z,38.00
2018-06-12T09:47:26.139Z,37.60
2018-06-12T09:49:54.490Z,37.10
2018-06-12T09:52:24.729Z,36.60
2018-06-12T09:54:54.476Z,36.30
2018-06-12T09:57:23.145Z,36.10
2018-06-12T09:59:51.411Z,35.90
2018-06-12T10:02:19.979Z,35.90
2018-06-12T10:04:48.255Z,35.60
2018-06-12T10:07:17.326Z,35.80
2018-06-12T10:09:45.662Z,35.80
2018-06-12T10:12:13.928Z,35.80
2018-06-12T10:14:42.256Z,35.80
2018-06-12T10:19:38.594Z,36.00
2018-06-12T10:22:06.903Z,36.60
2018-06-12T10:24:35.182Z,37.40
2018-06-12T10:27:03.479Z,37.90
2018-06-12T10:29:31.894Z,38.00
2018-06-12T10:32:00.349Z,37.30
2018-06-12T10:34:28.678Z,37.00
2018-06-12T10:36:56.954Z,36.90
2018-06-12T10:39:25.487Z,36.20
2018-06-12T10:41:53.771Z,36.40
2018-06-12T10:44:22.018Z,37.90
2018-06-12T10:46:50.303Z,38.30
2018-06-12T10:49:18.609Z,38.90
2018-06-12T10:51:47.457Z,38.30
2018-06-12T10:54:16.373Z,38.20
2018-06-12T10:56:44.635Z,38.10
2018-06-12T10:59:12.897Z,37.80
2018-06-12T11:01:41.225Z,37.80
2018-06-12T11:04:10.486Z,38.20
2018-06-12T11:06:39.441Z,38.50
2018-06-12T11:11:35.818Z,37.90
2018-06-12T11:14:04.173Z,37.50
2018-06-12T11:16:32.582Z,37.10
2018-06-12T11:19:00.887Z,37.50
2018-06-12T11:21:29.213Z,37.90
2018-06-12T11:23:57.545Z,37.30
2018-06-12T11:26:25.943Z,36.90
2018-06-12T11:28:54.218Z,36.50
2018-06-12T11:31:22.497Z,37.70
2018-06-12T11:33:50.779Z,38.00
2018-06-12T11:36:19.034Z,38.60
2018-06-12T11:38:47.804Z,38.40
2018-06-12T11:41:16.142Z,38.80
2018-06-12T11:43:44.446Z,38.90
2018-06-12T11:46:12.694Z,38.20
2018-06-12T11:48:41.103Z,37.20
2018-06-12T11:51:09.495Z,35.80
2018-06-12T11:53:37.755Z,35.10
2018-06-12T11:56:06.093Z,34.30
2018-06-12T11:58:34.325Z,34.20
2018-06-12T12:01:02.702Z,34.20
2018-06-12T12:03:31.006Z,34.00
2018-06-12T12:05:59.627Z,33.80
2018-06-12T12:08:27.875Z,33.70
2018-06-12T12:10:56.191Z,33.40
2018-06-12T12:13:24.498Z,33.10
2018-06-12T12:15:53.542Z,32.60
2018-06-12T12:18:21.782Z,32.30
2018-06-12T12:20:50.025Z,31.90
2018-06-12T12:23:18.346Z,31.80
2018-06-12T12:25:46.753Z,31.70
2018-06-12T12:28:15.042Z,31.50
2018-06-12T12:30:43.285Z,31.10
2018-06-12T12:33:11.561Z,30.80
2018-06-12T12:35:40.285Z,30.70
2018-06-12T12:38:08.932Z,30.60
2018-06-12T12:40:37.175Z,30.70
2018-06-12T12:43:05.519Z,30.50
2018-06-12T12:45:33.750Z,30.50
2018-06-12T12:48:02.170Z,30.20
2018-06-12T12:50:30.454Z,30.40
2018-06-12T12:52:58.821Z,30.60
2018-06-12T12:55:27.083Z,30.70
2018-06-12T12:57:55.458Z,30.60
2018-06-12T13:00:23.760Z,30.40
2018-06-12T13:02:51.985Z,30.60
2018-06-12T13:05:20.227Z,30.80
2018-06-12T13:07:48.462Z,31.00
2018-06-12T13:10:16.793Z,31.00
2018-06-12T13:12:45.017Z,31.00
2018-06-12T13:15:13.250Z,31.20
2018-06-12T13:17:41.534Z,31.50
2018-06-12T13:20:09.927Z,31.60
2018-06-12T13:22:38.170Z,31.60
2018-06-12T13:25:06.395Z,31.70
2018-06-12T13:27:34.675Z,31.90
2018-06-12T13:30:02.953Z,32.20
2018-06-12T13:32:31.214Z,32.60
2018-06-12T13:34:59.446Z,33.20
2018-06-12T13:39:55.703Z,33.50
2018-06-12T13:42:24.113Z,33.30
2018-06-12T13:44:52.346Z,33.00
2018-06-12T13:47:20.578Z,32.40
2018-06-12T13:49:48.815Z,32.20
2018-06-12T13:52:17.103Z,31.90
2018-06-12T13:54:46.231Z,31.70
2018-06-12T13:57:14.397Z,31.80
2018-06-12T13:59:42.649Z,32.20
2018-06-12T14:02:10.878Z,32.50
2018-06-12T14:04:39.158Z,32.90
2018-06-12T14:07:07.425Z,34.10
2018-06-12T14:09:35.855Z,34.80
2018-06-12T14:12:04.102Z,34.40
2018-06-12T14:14:32.542Z,33.90
2018-06-12T14:17:01.297Z,33.30
2018-06-12T14:19:29.617Z,32.80
2018-06-12T14:21:58.300Z,33.10
2018-06-12T14:24:26.488Z,34.40
2018-06-12T14:26:54.826Z,36.00
2018-06-12T14:29:23.076Z,36.70
2018-06-12T14:31:51.290Z,36.50
2018-06-12T14:34:19.522Z,35.50
2018-06-12T14:36:47.866Z,35.10
2018-06-12T14:39:16.221Z,35.10
2018-06-12T14:41:44.441Z,34.40
2018-06-12T14:44:12.708Z,34.40
2018-06-12T14:46:40.958Z,34.50
2018-06-12T14:51:38.012Z,34.00
2018-06-12T14:54:06.454Z,33.80
2018-06-12T14:56:34.759Z,33.50
2018-06-12T14:59:03.332Z,33.10
2018-06-12T15:01:31.567Z,32.60
2018-06-12T15:04:01.134Z,31.70
2018-06-12T15:06:29.402Z,31.60
2018-06-12T15:08:57.749Z,31.30
2018-06-12T15:11:26.138Z,31.10
2018-06-12T15:13:54.526Z,31.40
2018-06-12T15:16:22.826Z,31.60
2018-06-12T15:18:51.163Z,32.40
2018-06-12T15:21:19.765Z,33.10
2018-06-12T15:23:48.226Z,33.30
2018-06-12T15:26:17.799Z,32.60
2018-06-12T15:28:46.231Z,31.90
2018-06-12T15:31:14.474Z,30.90
2018-06-12T15:33:42.859Z,30.20
2018-06-12T15:36:11.146Z,29.50
2018-06-12T15:38:39.546Z,29.10
2018-06-12T15:41:07.939Z,29.00
2018-06-12T15:46:04.274Z,28.90
2018-06-12T15:48:32.858Z,28.70
2018-06-12T15:51:01.090Z,28.10
2018-06-12T15:53:29.338Z,27.80
2018-06-12T15:55:57.648Z,27.40
2018-06-12T15:58:26.343Z,27.20
2018-06-12T16:00:54.929Z,27.10
2018-06-12T16:03:23.178Z,27.30
2018-06-12T16:05:52.506Z,27.10
2018-06-12T16:08:20.873Z,26.90
2018-06-12T16:10:49.361Z,26.70
2018-06-12T16:13:17.721Z,26.60
2018-06-12T16:15:46.590Z,26.60
2018-06-12T16:18:14.902Z,26.80
2018-06-12T16:20:43.195Z,26.60
2018-06-12T16:23:11.537Z,26.50
2018-06-12T16:25:40.599Z,26.60
2018-06-12T16:28:09.714Z,26.20
2018-06-12T16:30:38.147Z,26.20
2018-06-12T16:33:06.409Z,26.20
2018-06-12T16:35:34.665Z,26.20
2018-06-12T16:38:03.156Z,25.90
2018-06-12T16:40:31.711Z,26.00
2018-06-12T16:42:59.998Z,26.20
2018-06-12T16:45:28.247Z,26.40
2018-06-12T16:47:56.544Z,26.30
2018-06-12T16:50:25.093Z,26.40
2018-06-12T16:52:53.549Z,26.40
2018-06-12T16:55:21.834Z,26.50
2018-06-12T16:57:50.119Z,26.30
2018-06-12T17:00:18.430Z,26.60
2018-06-12T17:02:47.630Z,26.70
2018-06-12T17:05:16.711Z,26.90
2018-06-12T17:07:44.962Z,26.80
2018-06-12T17:10:13.250Z,26.70
2018-06-12T17:12:41.525Z,26.90
2018-06-12T17:15:09.893Z,26.80
2018-06-12T17:17:38.255Z,26.50
2018-06-12T17:20:06.547Z,26.40
2018-06-12T17:22:34.846Z,26.50
2018-06-12T17:25:03.198Z,26.50
2018-06-12T17:27:32.038Z,26.40
2018-06-12T17:30:00.360Z,26.40
2018-06-12T17:32:28.710Z,26.10
2018-06-12T17:34:56.977Z,25.70
2018-06-12T17:37:25.971Z,25.70
2018-06-12T17:39:54.950Z,25.30
2018-06-12T17:42:23.251Z,25.20
2018-06-12T17:44:51.510Z,25.30
2018-06-12T17:47:19.801Z,25.30
2018-06-12T17:49:48.055Z,24.90
2018-06-12T17:52:16.402Z,24.80
2018-06-12T17:54:44.730Z,24.70
2018-06-12T17:57:13.029Z,24.60
2018-06-12T17:59:41.285Z,24.60
2018-06-12T18:02:09.758Z,24.70
2018-06-12T18:04:38.045Z,24.60
2018-06-12T18:07:06.438Z,24.80
2018-06-12T18:09:34.782Z,25.00
2018-06-12T18:12:03.241Z,25.10
2018-06-12T18:14:32.088Z,25.10
2018-06-12T18:17:00.380Z,24.90
2018-06-12T18:19:28.715Z,24.80
2018-06-12T18:21:56.976Z,24.60
2018-06-12T18:24:25.415Z,24.50
2018-06-12T18:26:54.058Z,24.40
2018-06-12T18:29:22.452Z,24.30
2018-06-12T18:31:50.682Z,23.90
2018-06-12T18:34:18.983Z,23.80
2018-06-12T18:36:47.823Z,23.90
2018-06-12T18:39:16.163Z,24.10
2018-06-12T18:41:44.437Z,23.90
2018-06-12T18:46:40.816Z,23.70
2018-06-12T18:51:37.311Z,23.10
2018-06-12T18:54:05.835Z,23.10
2018-06-12T18:56:34.130Z,23.10
2018-06-12T18:59:02.744Z,22.90
2018-06-12T19:01:31.245Z,22.80
2018-06-12T19:03:59.574Z,22.80
2018-06-12T19:08:56.118Z,23.00
2018-06-12T19:11:24.655Z,22.90
2018-06-12T19:13:52.926Z,22.90
2018-06-12T19:16:21.194Z,22.90
2018-06-12T19:18:49.447Z,23.00
2018-06-12T19:21:17.831Z,23.00
2018-06-12T19:23:46.360Z,22.60
2018-06-12T19:26:14.607Z,22.70
2018-06-12T19:28:42.867Z,22.70
2018-06-12T19:31:11.218Z,22.70
2018-06-12T19:33:39.745Z,22.90
2018-06-12T19:36:08.018Z,22.90
2018-06-12T19:38:36.265Z,22.80
2018-06-12T19:41:04.542Z,22.70
2018-06-12T19:43:32.970Z,22.80
2018-06-12T19:46:01.314Z,22.70
2018-06-12T19:48:29.538Z,22.80
2018-06-12T19:50:57.831Z,22.80
2018-06-12T19:53:26.246Z,22.30
2018-06-12T19:55:54.522Z,22.40
2018-06-12T19:58:22.794Z,22.30
2018-06-12T20:00:51.039Z,22.20
2018-06-12T20:03:19.294Z,22.30
2018-06-12T20:05:47.622Z,22.20
2018-06-12T20:08:15.945Z,22.20
2018-06-12T20:10:44.306Z,22.30
2018-06-12T20:13:12.580Z,22.30
2018-06-12T20:15:41.244Z,22.40
2018-06-12T20:20:37.558Z,22.30
2018-06-12T20:23:05.827Z,22.20
2018-06-12T20:25:34.161Z,22.00
2018-06-12T20:28:03.123Z,22.10
2018-06-12T20:30:31.456Z,22.10
2018-06-12T20:32:59.697Z,22.30
2018-06-12T20:35:27.949Z,22.10
2018-06-12T20:37:56.349Z,22.10
2018-06-12T20:40:24.743Z,22.10
2018-06-12T20:42:53.128Z,22.20
2018-06-12T20:45:21.543Z,22.10
2018-06-12T20:47:49.864Z,22.10
2018-06-12T20:50:18.341Z,22.20
2018-06-12T20:52:46.730Z,22.30
2018-06-12T20:57:43.139Z,22.50
2018-06-12T21:00:11.476Z,22.40
2018-06-12T21:02:40.055Z,22.30
2018-06-12T21:05:08.360Z,22.30
2018-06-12T21:07:36.794Z,22.20
2018-06-12T21:10:05.062Z,22.10
2018-06-12T21:12:33.418Z,22.10
2018-06-12T21:15:01.768Z,22.30
2018-06-12T21:17:30.014Z,22.20
2018-06-12T21:19:58.403Z,22.20
2018-06-12T21:22:26.614Z,22.00
2018-06-12T21:24:55.084Z,21.70
2018-06-12T21:27:23.276Z,21.50
2018-06-12T21:29:51.582Z,21.50
2018-06-12T21:32:19.901Z,21.50
2018-06-12T21:34:48.697Z,21.40
2018-06-12T21:37:17.310Z,21.30
2018-06-12T21:39:45.534Z,20.90
2018-06-12T21:42:13.825Z,20.80
2018-06-12T21:44:42.106Z,20.80
2018-06-12T21:47:10.441Z,20.70
2018-06-12T21:49:38.816Z,20.60
2018-06-12T21:52:06.971Z,20.50
2018-06-12T21:54:35.202Z,20.60
2018-06-12T21:57:03.497Z,20.50
2018-06-12T21:59:31.994Z,20.30
2018-06-12T22:02:00.210Z,20.20
2018-06-12T22:04:28.562Z,20.20
2018-06-12T22:06:56.852Z,20.10
2018-06-12T22:09:25.718Z,20.10
2018-06-12T22:11:54.134Z,19.90
2018-06-12T22:14:26.640Z,19.80
2018-06-12T22:16:55.635Z,20.00
2018-06-12T22:19:24.235Z,19.90
2018-06-12T22:21:52.585Z,19.90
2018-06-12T22:24:20.846Z,20.00
2018-06-12T22:26:49.090Z,20.10
2018-06-12T22:29:17.502Z,20.30
2018-06-12T22:31:46.077Z,20.40
2018-06-12T22:34:14.327Z,20.50
2018-06-12T22:36:42.553Z,20.30
2018-06-12T22:41:39.043Z,20.30
2018-06-12T22:44:07.297Z,20.30
2018-06-12T22:46:35.662Z,20.30
2018-06-12T22:51:32.558Z,20.00
2018-06-12T22:54:00.953Z,20.00
2018-06-12T22:56:29.234Z,20.10
2018-06-12T22:58:57.481Z,20.10
2018-06-12T23:01:25.973Z,20.30
2018-06-12T23:03:54.295Z,20.10
2018-06-12T23:06:22.623Z,20.30
2018-06-12T23:08:50.850Z,20.30
2018-06-12T23:11:19.436Z,20.30
2018-06-12T23:13:47.735Z,20.40
2018-06-12T23:16:16.882Z,20.50
2018-06-12T23:18:45.106Z,20.40
2018-06-12T23:21:24.698Z,20.20
2018-06-12T23:23:52.982Z,20.20
2018-06-12T23:26:21.279Z,20.20
2018-06-12T23:28:49.576Z,20.10
2018-06-12T23:31:17.966Z,19.90
2018-06-12T23:33:46.382Z,20.00
2018-06-12T23:36:14.754Z,20.00
2018-06-12T23:38:43.012Z,19.80
2018-06-12T23:41:11.341Z,19.80
2018-06-12T23:43:40.363Z,19.60
2018-06-12T23:46:08.758Z,19.70
2018-06-12T23:48:37.115Z,19.60
2018-06-12T23:51:05.406Z,19.50
2018-06-12T23:53:33.749Z,19.60
2018-06-12T23:56:02.415Z,19.50
2018-06-12T23:58:31.053Z,19.40
